createdAt,value
2022-11-09T00:01:30.990Z,36.00
2022-11-09T00:04:01.758Z,34.80
2022-11-09T00:06:30.804Z,55.50
2022-11-09T00:09:06.862Z,73.20
2022-11-09T00:11:38.970Z,63.30
2022-11-09T00:14:06.853Z,73.80
2022-11-09T00:16:34.879Z,74.60
2022-11-09T00:19:02.876Z,71.90
2022-11-09T00:21:30.847Z,65.30
2022-11-09T00:23:58.816Z,62.90
2022-11-09T00:26:26.998Z,68.10
2022-11-09T00:28:54.948Z,76.70
2022-11-09T00:31:24.785Z,62.50
2022-11-09T00:33:55.633Z,68.00
2022-11-09T00:36:26.099Z,45.70
2022-11-09T00:38:58.539Z,42.40
2022-11-09T00:41:27.464Z,34.90
2022-11-09T00:43:56.636Z,45.90
2022-11-09T00:46:25.298Z,66.80
2022-11-09T00:48:56.138Z,60.70
2022-11-09T00:51:24.711Z,89.50
2022-11-09T00:53:55.000Z,80.60
2022-11-09T00:56:24.596Z,90.50
2022-11-09T00:58:55.837Z,57.10
2022-11-09T01:01:24.576Z,37.60
2022-11-09T01:03:52.820Z,37.10
2022-11-09T01:06:24.106Z,44.70
2022-11-09T01:08:52.593Z,43.80
2022-11-09T01:11:23.170Z,37.00
2022-11-09T01:13:53.985Z,35.80
2022-11-09T01:16:23.876Z,31.80
2022-11-09T01:18:56.283Z,35.80
2022-11-09T01:21:27.477Z,29.90
2022-11-09T01:23:58.636Z,32.80
2022-11-09T01:26:29.953Z,29.90
2022-11-09T01:28:58.102Z,40.60
2022-11-09T01:31:26.495Z,33.20
2022-11-09T01:33:55.043Z,36.20
2022-11-09T01:36:24.309Z,30.50
2022-11-09T01:38:52.383Z,34.60
2022-11-09T01:41:25.081Z,54.10
2022-11-09T01:44:12.917Z,33.30
2022-11-09T01:46:49.402Z,51.00
2022-11-09T01:49:43.392Z,53.70
2022-11-09T01:52:23.765Z,56.90
2022-11-09T01:55:06.265Z,50.10
2022-11-09T01:57:40.215Z,39.40
2022-11-09T02:00:16.061Z,43.60
2022-11-09T02:02:49.885Z,36.40
2022-11-09T02:05:22.358Z,25.70
2022-11-09T02:07:53.296Z,27.10
2022-11-09T02:10:34.002Z,24.10
2022-11-09T02:13:03.214Z,27.00
2022-11-09T02:15:41.381Z,26.70
2022-11-09T02:18:12.760Z,24.80
2022-11-09T02:20:46.714Z,20.70
2022-11-09T02:23:14.960Z,23.10
2022-11-09T02:26:06.682Z,23.70
2022-11-09T02:28:36.531Z,23.20
2022-11-09T02:31:08.152Z,24.60
2022-11-09T02:34:03.529Z,22.00
2022-11-09T02:36:33.940Z,28.70
2022-11-09T02:39:04.076Z,24.80
2022-11-09T02:41:33.069Z,29.80
2022-11-09T02:44:02.473Z,33.30
2022-11-09T02:46:35.976Z,34.90
2022-11-09T02:49:05.209Z,27.40
2022-11-09T02:51:33.199Z,25.50
2022-11-09T02:54:01.488Z,24.80
2022-11-09T02:56:29.590Z,23.60
2022-11-09T02:58:57.704Z,20.60
2022-11-09T03:01:25.672Z,25.80
2022-11-09T03:03:53.931Z,28.00
2022-11-09T03:06:34.667Z,25.50
2022-11-09T03:09:09.885Z,22.80
2022-11-09T03:11:40.056Z,25.50
2022-11-09T03:14:10.118Z,27.70
2022-11-09T03:16:39.407Z,25.20
2022-11-09T03:19:07.894Z,28.10
2022-11-09T03:21:35.987Z,30.00
2022-11-09T03:24:04.255Z,26.30
2022-11-09T03:26:33.487Z,30.20
2022-11-09T03:29:01.472Z,36.00
2022-11-09T03:31:30.731Z,30.50
2022-11-09T03:33:58.904Z,34.20
2022-11-09T03:36:26.812Z,38.80
2022-11-09T03:38:54.710Z,28.00
2022-11-09T03:41:23.168Z,31.60
2022-11-09T03:43:51.059Z,26.30
2022-11-09T03:46:19.208Z,25.10
2022-11-09T03:48:47.468Z,29.80
2022-11-09T03:51:15.327Z,26.10
2022-11-09T03:53:43.169Z,26.80
2022-11-09T03:56:11.151Z,21.70
2022-11-09T03:58:38.947Z,22.30
2022-11-09T04:01:07.117Z,26.80
2022-11-09T04:03:35.047Z,21.50
2022-11-09T04:06:03.126Z,19.40
2022-11-09T04:08:31.119Z,19.20
2022-11-09T04:10:59.024Z,27.10
2022-11-09T04:13:26.852Z,18.30
2022-11-09T04:15:54.735Z,18.40
2022-11-09T04:18:22.781Z,23.00
2022-11-09T04:20:51.354Z,32.20
2022-11-09T04:23:19.998Z,36.70
2022-11-09T04:25:48.234Z,27.30
2022-11-09T04:28:19.665Z,24.00
2022-11-09T04:30:47.567Z,32.20
2022-11-09T04:33:15.713Z,27.30
2022-11-09T04:35:44.034Z,19.90
2022-11-09T04:38:14.057Z,19.30
2022-11-09T04:40:42.749Z,20.20
2022-11-09T04:43:13.337Z,17.30
2022-11-09T04:45:41.972Z,19.30
2022-11-09T04:48:12.414Z,22.90
2022-11-09T04:50:40.518Z,19.20
2022-11-09T04:53:11.234Z,19.10
2022-11-09T04:55:40.668Z,21.90
2022-11-09T04:58:09.865Z,23.20
2022-11-09T05:00:38.069Z,23.30
2022-11-09T05:03:07.582Z,23.90
2022-11-09T05:05:37.605Z,21.20
2022-11-09T05:08:06.968Z,26.60
2022-11-09T05:10:36.174Z,27.30
2022-11-09T05:13:09.983Z,26.10
2022-11-09T05:15:38.251Z,25.20
2022-11-09T05:18:07.814Z,27.40
2022-11-09T05:20:36.988Z,25.20
2022-11-09T05:23:23.878Z,24.90
2022-11-09T05:25:52.233Z,30.20
2022-11-09T05:28:20.151Z,29.00
2022-11-09T05:30:48.116Z,27.60
2022-11-09T05:33:17.781Z,22.50
2022-11-09T05:35:46.326Z,24.80
2022-11-09T05:38:14.404Z,26.70
2022-11-09T05:40:42.461Z,21.00
2022-11-09T05:43:10.496Z,20.70
2022-11-09T05:45:43.840Z,22.20
2022-11-09T05:48:14.634Z,19.50
2022-11-09T05:50:44.101Z,23.50
2022-11-09T05:53:22.802Z,24.80
2022-11-09T05:55:51.534Z,27.50
2022-11-09T05:58:19.716Z,27.50
2022-11-09T06:00:47.979Z,25.30
2022-11-09T06:03:16.535Z,28.90
2022-11-09T06:05:45.365Z,30.20
2022-11-09T06:08:15.601Z,29.30
2022-11-09T06:10:44.315Z,35.40
2022-11-09T06:13:12.688Z,29.80
2022-11-09T06:15:40.921Z,27.00
2022-11-09T06:18:08.907Z,25.60
2022-11-09T06:20:36.923Z,27.90
2022-11-09T06:23:05.244Z,25.30
2022-11-09T06:25:33.696Z,27.10
2022-11-09T06:28:02.149Z,29.50
2022-11-09T06:30:30.616Z,26.80
2022-11-09T06:33:03.426Z,24.40
2022-11-09T06:35:31.411Z,30.80
2022-11-09T06:38:00.412Z,28.00
2022-11-09T06:40:29.378Z,37.00
2022-11-09T06:42:59.431Z,25.30
2022-11-09T06:45:29.295Z,33.60
2022-11-09T06:47:58.667Z,37.20
2022-11-09T06:50:28.832Z,43.10
2022-11-09T06:52:59.043Z,36.70
2022-11-09T06:55:28.032Z,44.80
2022-11-09T06:57:56.892Z,30.50
2022-11-09T07:00:27.132Z,38.10
2022-11-09T07:02:55.566Z,29.90
2022-11-09T07:05:24.881Z,32.00
2022-11-09T07:07:53.008Z,30.70
2022-11-09T07:10:21.147Z,35.80
2022-11-09T07:12:49.845Z,35.10
2022-11-09T07:15:18.734Z,32.80
2022-11-09T07:17:46.807Z,35.10
2022-11-09T07:20:15.477Z,41.60
2022-11-09T07:22:43.667Z,40.60
2022-11-09T07:25:13.167Z,40.60
2022-11-09T07:27:41.414Z,41.00
2022-11-09T07:30:10.412Z,49.40
2022-11-09T07:33:07.383Z,49.80
2022-11-09T07:35:28.708Z,45.90
2022-11-09T07:38:01.885Z,43.50
2022-11-09T07:40:31.275Z,60.70
2022-11-09T07:43:01.151Z,51.90
2022-11-09T07:45:31.122Z,55.30
2022-11-09T07:48:02.259Z,52.00
2022-11-09T07:50:32.388Z,52.80
2022-11-09T07:53:02.133Z,54.80
2022-11-09T07:55:31.532Z,58.70
2022-11-09T07:58:02.867Z,52.50
2022-11-09T08:00:33.975Z,51.60
2022-11-09T08:03:02.434Z,53.70
2022-11-09T08:05:30.905Z,49.60
2022-11-09T08:08:02.531Z,52.20
2022-11-09T08:10:32.817Z,57.90
2022-11-09T08:13:04.454Z,53.80
2022-11-09T08:15:35.479Z,58.10
2022-11-09T08:18:16.787Z,50.30
2022-11-09T08:20:45.635Z,56.30
2022-11-09T08:23:16.071Z,60.80
2022-11-09T08:25:44.857Z,55.40
2022-11-09T08:28:15.969Z,71.80
2022-11-09T08:30:45.299Z,62.10
2022-11-09T08:33:14.433Z,55.70
2022-11-09T08:35:42.623Z,57.00
2022-11-09T08:38:11.187Z,63.30
2022-11-09T08:40:39.720Z,56.20
2022-11-09T08:43:11.522Z,68.50
2022-11-09T08:45:41.211Z,61.00
2022-11-09T08:48:11.273Z,59.90
2022-11-09T08:50:39.597Z,63.90
2022-11-09T08:53:11.602Z,65.80
2022-11-09T08:55:43.009Z,68.30
2022-11-09T08:58:14.048Z,63.70
2022-11-09T09:00:44.740Z,59.10
2022-11-09T09:03:13.529Z,47.50
2022-11-09T09:05:41.905Z,44.30
2022-11-09T09:08:11.832Z,38.50
2022-11-09T09:10:40.619Z,39.10
2022-11-09T09:13:09.328Z,37.50
2022-11-09T09:15:40.200Z,34.80
2022-11-09T09:18:10.997Z,37.00
2022-11-09T09:20:41.592Z,41.50
2022-11-09T09:23:12.950Z,33.90
2022-11-09T09:25:42.121Z,32.90
2022-11-09T09:28:11.257Z,33.40
2022-11-09T09:30:39.604Z,39.90
2022-11-09T09:33:07.750Z,31.90
2022-11-09T09:35:35.982Z,26.00
2022-11-09T09:38:04.060Z,41.70
2022-11-09T09:40:37.957Z,29.80
2022-11-09T09:43:06.152Z,26.20
2022-11-09T09:45:40.502Z,30.50
2022-11-09T09:48:28.041Z,32.20
2022-11-09T09:51:04.146Z,26.10
2022-11-09T09:53:46.995Z,28.10
2022-11-09T09:56:24.256Z,30.60
2022-11-09T09:59:05.623Z,31.90
2022-11-09T10:01:45.003Z,30.50
2022-11-09T10:04:24.942Z,43.80
2022-11-09T10:07:33.562Z,32.70
2022-11-09T10:10:34.283Z,36.00
2022-11-09T10:13:06.075Z,28.90
2022-11-09T10:15:47.676Z,28.80
2022-11-09T10:18:15.965Z,30.80
2022-11-09T10:21:02.159Z,32.50
2022-11-09T10:23:56.429Z,34.50
2022-11-09T10:26:43.355Z,27.00
2022-11-09T10:29:44.594Z,33.90
2022-11-09T10:32:21.018Z,29.30
2022-11-09T10:35:03.288Z,27.50
2022-11-09T10:37:39.252Z,28.80
2022-11-09T10:40:25.487Z,27.20
2022-11-09T10:43:13.918Z,26.60
2022-11-09T10:46:07.295Z,30.30
2022-11-09T10:48:55.823Z,19.90
2022-11-09T10:51:48.088Z,36.90
2022-11-09T10:54:38.377Z,34.60
2022-11-09T10:57:26.059Z,18.80
2022-11-09T11:00:19.395Z,25.10
2022-11-09T11:03:17.989Z,35.50
2022-11-09T11:06:08.204Z,37.30
2022-11-09T11:09:02.135Z,31.00
2022-11-09T11:11:49.341Z,35.50
2022-11-09T11:14:43.167Z,32.30
2022-11-09T11:17:37.293Z,38.10
2022-11-09T11:20:34.925Z,29.70
2022-11-09T11:23:25.212Z,28.30
2022-11-09T11:26:24.062Z,30.50
2022-11-09T11:29:40.246Z,38.20
2022-11-09T11:32:27.759Z,30.80
2022-11-09T11:35:33.561Z,30.90
2022-11-09T11:38:36.150Z,27.00
2022-11-09T11:41:38.504Z,24.80
2022-11-09T11:44:53.525Z,38.40
2022-11-09T11:47:55.440Z,32.30
2022-11-09T11:51:16.365Z,26.40
2022-11-09T11:54:14.078Z,30.00
2022-11-09T11:57:26.777Z,26.00
2022-11-09T12:00:18.346Z,27.60
2022-11-09T12:03:38.433Z,27.30
2022-11-09T12:06:31.706Z,33.90
2022-11-09T12:09:59.977Z,29.90
2022-11-09T12:12:59.031Z,28.30
2022-11-09T12:16:04.533Z,31.10
2022-11-09T12:19:26.289Z,30.20
2022-11-09T12:22:50.873Z,37.00
2022-11-09T12:26:16.992Z,34.90
2022-11-09T12:29:28.550Z,34.60
2022-11-09T12:32:41.812Z,33.60
2022-11-09T12:35:48.515Z,34.20
2022-11-09T12:38:51.383Z,31.50
2022-11-09T12:41:39.691Z,31.70
2022-11-09T12:44:35.006Z,30.20
2022-11-09T12:47:29.833Z,36.30
2022-11-09T12:50:19.866Z,29.60
2022-11-09T12:53:08.301Z,27.40
2022-11-09T12:56:04.683Z,30.80
2022-11-09T12:58:52.022Z,32.60
2022-11-09T13:01:39.139Z,43.00
2022-11-09T13:04:27.555Z,48.30
2022-11-09T13:07:14.853Z,56.60
2022-11-09T13:10:02.931Z,42.40
2022-11-09T13:12:49.788Z,34.20
2022-11-09T13:15:38.226Z,35.10
2022-11-09T13:18:35.231Z,36.30
2022-11-09T13:21:22.692Z,32.20
2022-11-09T13:24:31.489Z,33.20
2022-11-09T13:27:47.288Z,35.20
2022-11-09T13:30:41.397Z,36.10
2022-11-09T13:33:39.706Z,34.40
2022-11-09T13:36:26.539Z,32.70
2022-11-09T13:39:31.413Z,30.00
2022-11-09T13:42:32.071Z,28.70
2022-11-09T13:45:26.645Z,29.70
2022-11-09T13:48:35.415Z,30.40
2022-11-09T13:51:37.233Z,40.60
2022-11-09T13:54:36.241Z,31.70
2022-11-09T13:57:24.926Z,35.70
2022-11-09T14:00:25.642Z,32.80
2022-11-09T14:03:26.432Z,34.40
2022-11-09T14:06:13.846Z,28.30
2022-11-09T14:09:02.386Z,29.90
2022-11-09T14:12:09.063Z,29.80
2022-11-09T14:15:23.203Z,31.00
2022-11-09T14:18:22.235Z,34.30
2022-11-09T14:21:32.853Z,36.80
2022-11-09T14:24:21.438Z,39.30
2022-11-09T14:27:11.279Z,36.40
2022-11-09T14:30:02.628Z,37.20
2022-11-09T14:32:52.084Z,30.40
2022-11-09T14:35:40.823Z,40.00
2022-11-09T14:38:33.994Z,44.90
2022-11-09T14:41:25.829Z,47.10
2022-11-09T14:44:34.290Z,44.80
2022-11-09T14:47:31.538Z,39.90
2022-11-09T14:50:32.637Z,39.60
2022-11-09T14:53:42.266Z,33.00
2022-11-09T14:56:35.444Z,35.80
2022-11-09T14:59:33.934Z,31.00
2022-11-09T15:02:26.501Z,29.80
2022-11-09T15:05:42.628Z,34.00
2022-11-09T15:08:31.554Z,39.60
2022-11-09T15:11:33.751Z,29.80
2022-11-09T15:14:34.432Z,25.80
2022-11-09T15:17:37.968Z,27.80
2022-11-09T15:20:40.772Z,33.80
2022-11-09T15:23:41.393Z,30.30
2022-11-09T15:26:37.624Z,35.50
2022-11-09T15:29:40.132Z,30.50
2022-11-09T15:32:27.126Z,33.70
2022-11-09T15:35:18.087Z,39.20
2022-11-09T15:38:05.364Z,32.90
2022-11-09T15:40:52.433Z,35.90
2022-11-09T15:43:39.369Z,34.20
2022-11-09T15:46:39.316Z,37.00
2022-11-09T15:49:28.753Z,34.20
2022-11-09T15:52:16.319Z,40.20
2022-11-09T15:55:04.215Z,31.80
2022-11-09T15:57:52.730Z,38.70
2022-11-09T16:00:40.948Z,33.30
2022-11-09T16:03:28.681Z,34.90
2022-11-09T16:06:23.761Z,29.30
2022-11-09T16:09:11.000Z,41.70
2022-11-09T16:11:58.800Z,47.40
2022-11-09T16:14:45.810Z,42.70
2022-11-09T16:17:32.718Z,68.90
2022-11-09T16:20:20.946Z,42.50
2022-11-09T16:23:09.269Z,37.40
2022-11-09T16:25:56.891Z,45.70
2022-11-09T16:28:45.154Z,40.80
2022-11-09T16:40:16.236Z,42.20
2022-11-09T16:43:03.546Z,45.40
2022-11-09T16:45:50.714Z,40.30
2022-11-09T16:48:38.504Z,42.20
2022-11-09T16:51:25.688Z,40.50
2022-11-09T16:54:13.002Z,39.60
2022-11-09T16:57:01.225Z,44.90
2022-11-09T16:59:48.531Z,37.60
2022-11-09T17:02:35.847Z,35.50
2022-11-09T17:05:23.044Z,38.70
2022-11-09T17:08:10.980Z,38.40
2022-11-09T17:10:57.883Z,40.40
2022-11-09T17:13:44.940Z,81.10
2022-11-09T17:16:32.087Z,59.10
2022-11-09T17:19:20.036Z,58.10
2022-11-09T17:22:07.728Z,46.40
2022-11-09T17:24:54.933Z,57.10
2022-11-09T17:27:41.636Z,54.10
2022-11-09T17:30:28.647Z,46.00
2022-11-09T17:33:15.614Z,49.30
2022-11-09T17:36:08.001Z,48.80
2022-11-09T17:38:54.862Z,41.70
2022-11-09T17:41:42.861Z,47.40
2022-11-09T17:44:29.640Z,39.40
2022-11-09T17:47:17.037Z,43.30
2022-11-09T17:50:05.372Z,31.80
2022-11-09T17:52:52.722Z,30.30
2022-11-09T17:55:40.454Z,32.40
2022-11-09T17:58:27.595Z,33.10
2022-11-09T18:01:17.679Z,35.50
2022-11-09T18:04:09.730Z,33.50
2022-11-09T18:06:56.455Z,33.20
2022-11-09T18:09:43.196Z,32.70
2022-11-09T18:12:30.017Z,36.20
2022-11-09T18:15:18.079Z,32.40
2022-11-09T18:18:07.125Z,35.70
2022-11-09T18:20:54.290Z,36.90
2022-11-09T18:23:41.281Z,36.40
2022-11-09T18:26:28.234Z,38.90
2022-11-09T18:29:15.194Z,42.10
2022-11-09T18:32:02.348Z,41.30
2022-11-09T18:34:49.209Z,49.90
2022-11-09T18:37:37.626Z,50.90
2022-11-09T18:40:24.272Z,43.00
2022-11-09T18:43:10.765Z,45.40
2022-11-09T18:46:00.006Z,47.10
2022-11-09T18:48:51.111Z,46.00
2022-11-09T18:51:37.473Z,42.90
2022-11-09T18:54:24.226Z,37.00
2022-11-09T18:57:15.924Z,43.70
2022-11-09T19:00:06.258Z,39.70
2022-11-09T19:02:53.569Z,38.30
2022-11-09T19:05:43.321Z,34.30
2022-11-09T19:08:48.275Z,36.40
2022-11-09T19:11:35.070Z,36.40
2022-11-09T19:14:21.840Z,42.40
2022-11-09T19:17:14.879Z,36.20
2022-11-09T19:20:01.317Z,36.60
2022-11-09T19:22:48.858Z,37.00
2022-11-09T19:25:36.323Z,42.30
2022-11-09T19:28:23.789Z,53.00
2022-11-09T19:31:20.289Z,50.00
2022-11-09T19:34:06.616Z,39.50
2022-11-09T19:36:53.222Z,41.60
2022-11-09T19:39:43.272Z,39.80
2022-11-09T19:42:30.622Z,34.80
2022-11-09T19:45:17.570Z,39.60
2022-11-09T19:48:04.383Z,34.80
2022-11-09T19:50:53.008Z,39.90
2022-11-09T19:53:42.589Z,35.20
2022-11-09T19:56:31.739Z,42.70
2022-11-09T19:59:18.325Z,39.20
2022-11-09T20:02:04.525Z,37.00
2022-11-09T20:04:52.417Z,41.60
2022-11-09T20:07:39.475Z,35.50
2022-11-09T20:10:26.385Z,36.90
2022-11-09T20:13:12.937Z,35.50
2022-11-09T20:16:08.397Z,37.30
2022-11-09T20:18:54.971Z,38.70
2022-11-09T20:21:42.111Z,35.20
2022-11-09T20:24:30.959Z,34.70
2022-11-09T20:27:20.066Z,34.30
2022-11-09T20:30:09.392Z,37.20
2022-11-09T20:32:58.466Z,29.60
2022-11-09T20:35:52.957Z,33.50
2022-11-09T20:38:40.473Z,30.50
2022-11-09T20:41:27.080Z,31.50
2022-11-09T20:44:13.746Z,32.30
2022-11-09T20:47:00.410Z,28.00
2022-11-09T20:49:50.214Z,28.30
2022-11-09T20:52:36.901Z,24.80
2022-11-09T20:55:25.700Z,29.60
2022-11-09T20:58:14.249Z,32.20
2022-11-09T21:01:06.836Z,30.30
2022-11-09T21:03:54.092Z,38.40
2022-11-09T21:06:42.017Z,31.40
2022-11-09T21:09:29.827Z,35.30
2022-11-09T21:12:25.190Z,38.20
2022-11-09T21:15:15.517Z,41.00
2022-11-09T21:18:02.409Z,23.50
2022-11-09T21:20:49.185Z,39.10
2022-11-09T21:23:55.966Z,43.30
2022-11-09T21:27:17.631Z,26.00
2022-11-09T21:30:07.328Z,30.60
2022-11-09T21:32:55.052Z,26.50
2022-11-09T21:35:41.705Z,29.00
2022-11-09T21:38:33.425Z,18.80
2022-11-09T21:41:38.717Z,20.40
2022-11-09T21:44:30.074Z,25.10
2022-11-09T21:47:17.562Z,22.00
2022-11-09T21:50:09.695Z,21.10
2022-11-09T21:53:04.505Z,28.90
2022-11-09T21:55:51.736Z,24.10
2022-11-09T21:58:39.097Z,24.90
2022-11-09T22:01:26.814Z,28.60
2022-11-09T22:04:13.903Z,27.60
2022-11-09T22:07:00.585Z,25.60
2022-11-09T22:10:09.416Z,22.30
2022-11-09T22:13:16.151Z,23.50
2022-11-09T22:16:07.167Z,21.60
2022-11-09T22:19:12.985Z,17.80
2022-11-09T22:21:59.532Z,26.20
2022-11-09T22:24:46.226Z,39.50
2022-11-09T22:27:33.298Z,44.50
2022-11-09T22:30:20.649Z,42.20
2022-11-09T22:33:07.695Z,32.80
2022-11-09T22:36:00.221Z,33.60
2022-11-09T22:38:47.240Z,24.70
2022-11-09T22:41:33.654Z,18.80
2022-11-09T22:44:20.367Z,18.20
2022-11-09T22:47:07.118Z,21.20
2022-11-09T22:49:53.900Z,22.70
2022-11-09T22:52:40.707Z,31.50
2022-11-09T22:55:27.453Z,17.90
2022-11-09T22:58:14.478Z,22.40
2022-11-09T23:01:11.069Z,19.60
2022-11-09T23:03:58.167Z,20.50
2022-11-09T23:06:45.005Z,24.60
2022-11-09T23:09:31.363Z,25.20
2022-11-09T23:12:18.115Z,21.30
2022-11-09T23:15:04.967Z,26.50
2022-11-09T23:18:15.078Z,22.80
2022-11-09T23:21:01.544Z,20.80
2022-11-09T23:23:48.938Z,24.10
2022-11-09T23:26:35.261Z,24.70
2022-11-09T23:29:21.645Z,26.00
2022-11-09T23:32:08.679Z,23.40
2022-11-09T23:34:55.429Z,28.50
2022-11-09T23:37:42.183Z,40.60
2022-11-09T23:40:30.010Z,24.10
2022-11-09T23:43:17.379Z,21.90
2022-11-09T23:46:06.858Z,28.90
2022-11-09T23:48:53.060Z,27.30
2022-11-09T23:51:39.531Z,24.40
2022-11-09T23:54:26.483Z,23.90
2022-11-09T23:57:13.236Z,27.10
2022-11-09T23:59:59.947Z,25.40
